sensor_id;sensor_type;location;lat;lon;timestamp;pressure;altitude;pressure_sealevel;temperature;humidity
81125;BME280;72192;52.114;5.424;2023-08-24T00:02:05;101954.13;;;15.37;88.01
81125;BME280;72192;52.114;5.424;2023-08-24T00:04:52;101954.44;;;15.34;88.93
81125;BME280;72192;52.114;5.424;2023-08-24T00:07:31;101956.84;;;15.37;88.53
81125;BME280;72192;52.114;5.424;2023-08-24T00:10:19;101957.69;;;15.37;87.68
81125;BME280;72192;52.114;5.424;2023-08-24T00:13:04;101946.44;;;15.32;87.17
81125;BME280;72192;52.114;5.424;2023-08-24T00:15:47;101941.69;;;15.26;88.01
81125;BME280;72192;52.114;5.424;2023-08-24T00:18:35;101938.09;;;15.26;88.59
81125;BME280;72192;52.114;5.424;2023-08-24T00:21:15;101943.56;;;15.26;88.39
81125;BME280;72192;52.114;5.424;2023-08-24T00:23:57;101947.28;;;15.33;88.99
81125;BME280;72192;52.114;5.424;2023-08-24T00:26:37;101941.19;;;15.39;89.10
81125;BME280;72192;52.114;5.424;2023-08-24T00:29:18;101942.22;;;15.46;89.23
81125;BME280;72192;52.114;5.424;2023-08-24T00:31:59;101939.81;;;15.51;88.98
81125;BME280;72192;52.114;5.424;2023-08-24T00:34:39;101942.41;;;15.61;88.94
81125;BME280;72192;52.114;5.424;2023-08-24T00:37:19;101939.69;;;15.69;89.07
81125;BME280;72192;52.114;5.424;2023-08-24T00:40:05;101925.25;;;15.76;88.81
81125;BME280;72192;52.114;5.424;2023-08-24T00:42:49;101914.34;;;15.76;87.55
81125;BME280;72192;52.114;5.424;2023-08-24T00:45:36;101915.00;;;15.70;87.00
81125;BME280;72192;52.114;5.424;2023-08-24T00:48:25;101917.91;;;15.69;87.12
81125;BME280;72192;52.114;5.424;2023-08-24T00:51:15;101909.88;;;15.59;86.69
81125;BME280;72192;52.114;5.424;2023-08-24T00:54:03;101912.97;;;15.56;86.19
81125;BME280;72192;52.114;5.424;2023-08-24T00:56:53;101909.06;;;15.67;87.17
81125;BME280;72192;52.114;5.424;2023-08-24T00:59:34;101900.56;;;15.78;87.70
81125;BME280;72192;52.114;5.424;2023-08-24T01:02:32;101902.41;;;15.86;87.61
81125;BME280;72192;52.114;5.424;2023-08-24T01:05:14;101912.13;;;15.80;86.34
81125;BME280;72192;52.114;5.424;2023-08-24T01:07:54;101926.59;;;15.72;86.65
81125;BME280;72192;52.114;5.424;2023-08-24T01:14:41;101930.84;;;15.75;87.74
81125;BME280;72192;52.114;5.424;2023-08-24T01:17:35;101924.72;;;15.73;87.17
81125;BME280;72192;52.114;5.424;2023-08-24T01:20:19;101927.97;;;15.68;87.22
81125;BME280;72192;52.114;5.424;2023-08-24T01:26:17;101919.13;;;15.66;87.41
81125;BME280;72192;52.114;5.424;2023-08-24T01:28:58;101923.84;;;15.56;87.00
81125;BME280;72192;52.114;5.424;2023-08-24T01:31:48;101904.97;;;15.46;87.91
81125;BME280;72192;52.114;5.424;2023-08-24T01:34:38;101901.22;;;15.47;88.27
81125;BME280;72192;52.114;5.424;2023-08-24T01:37:21;101915.34;;;15.59;88.19
81125;BME280;72192;52.114;5.424;2023-08-24T01:40:17;101901.09;;;15.65;88.14
81125;BME280;72192;52.114;5.424;2023-08-24T01:43:10;101907.19;;;15.67;87.40
81125;BME280;72192;52.114;5.424;2023-08-24T01:46:04;101916.56;;;15.65;87.47
81125;BME280;72192;52.114;5.424;2023-08-24T01:48:58;101929.84;;;15.68;87.65
81125;BME280;72192;52.114;5.424;2023-08-24T01:51:39;101927.78;;;15.70;87.69
81125;BME280;72192;52.114;5.424;2023-08-24T01:54:30;101937.47;;;15.81;87.55
81125;BME280;72192;52.114;5.424;2023-08-24T01:57:11;101919.63;;;15.86;87.59
81125;BME280;72192;52.114;5.424;2023-08-24T01:59:51;101907.88;;;15.94;87.37
81125;BME280;72192;52.114;5.424;2023-08-24T02:02:31;101903.94;;;15.96;87.48
81125;BME280;72192;52.114;5.424;2023-08-24T02:05:14;101905.63;;;15.97;87.50
81125;BME280;72192;52.114;5.424;2023-08-24T02:08:08;101898.50;;;15.88;87.64
81125;BME280;72192;52.114;5.424;2023-08-24T02:10:50;101903.78;;;15.82;88.10
81125;BME280;72192;52.114;5.424;2023-08-24T02:13:34;101895.09;;;15.78;88.71
81125;BME280;72192;52.114;5.424;2023-08-24T02:16:16;101896.81;;;15.79;88.70
81125;BME280;72192;52.114;5.424;2023-08-24T02:19:01;101900.38;;;15.80;88.66
81125;BME280;72192;52.114;5.424;2023-08-24T02:21:40;101896.31;;;15.84;88.82
81125;BME280;72192;52.114;5.424;2023-08-24T02:24:20;101890.31;;;15.88;88.43
81125;BME280;72192;52.114;5.424;2023-08-24T02:27:00;101896.63;;;15.89;89.04
81125;BME280;72192;52.114;5.424;2023-08-24T02:29:40;101886.91;;;15.94;89.31
81125;BME280;72192;52.114;5.424;2023-08-24T02:32:22;101889.59;;;16.02;88.67
81125;BME280;72192;52.114;5.424;2023-08-24T02:35:11;101874.13;;;16.03;89.55
81125;BME280;72192;52.114;5.424;2023-08-24T02:37:51;101857.78;;;16.03;89.51
81125;BME280;72192;52.114;5.424;2023-08-24T02:40:33;101836.97;;;16.02;88.94
81125;BME280;72192;52.114;5.424;2023-08-24T02:43:12;101827.28;;;15.99;89.85
81125;BME280;72192;52.114;5.424;2023-08-24T02:45:53;101813.53;;;15.93;90.23
81125;BME280;72192;52.114;5.424;2023-08-24T02:48:34;101815.44;;;15.84;90.21
81125;BME280;72192;52.114;5.424;2023-08-24T02:51:13;101806.25;;;15.77;91.09
81125;BME280;72192;52.114;5.424;2023-08-24T02:53:53;101793.47;;;15.77;91.36
81125;BME280;72192;52.114;5.424;2023-08-24T02:56:35;101793.31;;;15.79;90.81
81125;BME280;72192;52.114;5.424;2023-08-24T02:59:26;101789.22;;;15.83;90.91
81125;BME280;72192;52.114;5.424;2023-08-24T03:02:06;101797.53;;;15.82;90.96
81125;BME280;72192;52.114;5.424;2023-08-24T03:04:51;101802.84;;;15.83;91.69
81125;BME280;72192;52.114;5.424;2023-08-24T03:07:33;101801.47;;;15.87;91.21
81125;BME280;72192;52.114;5.424;2023-08-24T03:10:12;101811.81;;;15.92;91.36
81125;BME280;72192;52.114;5.424;2023-08-24T03:12:52;101799.75;;;15.94;90.81
81125;BME280;72192;52.114;5.424;2023-08-24T03:15:32;101810.13;;;15.91;90.88
81125;BME280;72192;52.114;5.424;2023-08-24T03:18:15;101800.78;;;15.85;90.81
81125;BME280;72192;52.114;5.424;2023-08-24T03:20:55;101806.06;;;15.78;90.69
81125;BME280;72192;52.114;5.424;2023-08-24T03:23:35;101798.75;;;15.71;91.10
81125;BME280;72192;52.114;5.424;2023-08-24T03:26:15;101800.66;;;15.62;91.08
81125;BME280;72192;52.114;5.424;2023-08-24T03:28:54;101796.56;;;15.58;91.38
81125;BME280;72192;52.114;5.424;2023-08-24T03:31:34;101791.13;;;15.58;91.64
81125;BME280;72192;52.114;5.424;2023-08-24T03:34:14;101786.88;;;15.56;92.00
81125;BME280;72192;52.114;5.424;2023-08-24T03:36:54;101777.50;;;15.58;92.59
81125;BME280;72192;52.114;5.424;2023-08-24T03:39:36;101775.13;;;15.55;92.33
81125;BME280;72192;52.114;5.424;2023-08-24T03:42:28;101783.97;;;15.49;92.39
81125;BME280;72192;52.114;5.424;2023-08-24T03:45:08;101779.06;;;15.44;92.18
81125;BME280;72192;52.114;5.424;2023-08-24T03:47:48;101773.28;;;15.39;92.14
81125;BME280;72192;52.114;5.424;2023-08-24T03:50:28;101774.97;;;15.32;91.83
81125;BME280;72192;52.114;5.424;2023-08-24T03:53:08;101770.06;;;15.28;91.51
81125;BME280;72192;52.114;5.424;2023-08-24T03:55:49;101779.25;;;15.27;91.73
81125;BME280;72192;52.114;5.424;2023-08-24T03:58:38;101779.25;;;15.27;91.88
81125;BME280;72192;52.114;5.424;2023-08-24T04:01:21;101775.00;;;15.24;91.91
81125;BME280;72192;52.114;5.424;2023-08-24T04:04:00;101770.75;;;15.21;92.43
81125;BME280;72192;52.114;5.424;2023-08-24T04:06:40;101765.47;;;15.20;92.34
81125;BME280;72192;52.114;5.424;2023-08-24T04:09:19;101762.06;;;15.18;92.49
81125;BME280;72192;52.114;5.424;2023-08-24T04:11:59;101764.97;;;15.16;92.77
81125;BME280;72192;52.114;5.424;2023-08-24T04:14:39;101763.59;;;15.12;92.72
81125;BME280;72192;52.114;5.424;2023-08-24T04:17:19;101772.59;;;15.13;92.64
81125;BME280;72192;52.114;5.424;2023-08-24T04:19:59;101772.59;;;15.13;93.18
81125;BME280;72192;52.114;5.424;2023-08-24T04:22:38;101773.47;;;15.13;92.87
81125;BME280;72192;52.114;5.424;2023-08-24T04:25:18;101777.19;;;15.12;92.99
81125;BME280;72192;52.114;5.424;2023-08-24T04:27:58;101772.78;;;15.11;93.29
81125;BME280;72192;52.114;5.424;2023-08-24T04:30:38;101775.50;;;15.11;93.54
81125;BME280;72192;52.114;5.424;2023-08-24T04:33:17;101778.91;;;15.13;93.42
81125;BME280;72192;52.114;5.424;2023-08-24T04:35:58;101781.97;;;15.10;93.48
81125;BME280;72192;52.114;5.424;2023-08-24T04:38:38;101782.81;;;15.11;93.44
81125;BME280;72192;52.114;5.424;2023-08-24T04:41:18;101786.22;;;15.13;93.52
81125;BME280;72192;52.114;5.424;2023-08-24T04:43:57;101784.88;;;15.17;93.83
81125;BME280;72192;52.114;5.424;2023-08-24T04:46:37;101790.97;;;15.19;93.95
81125;BME280;72192;52.114;5.424;2023-08-24T04:49:17;101779.75;;;15.22;93.76
81125;BME280;72192;52.114;5.424;2023-08-24T04:52:07;101773.28;;;15.23;93.70
81125;BME280;72192;52.114;5.424;2023-08-24T04:54:50;101785.00;;;15.24;93.65
81125;BME280;72192;52.114;5.424;2023-08-24T04:57:30;101766.84;;;15.24;93.52
81125;BME280;72192;52.114;5.424;2023-08-24T05:00:12;101769.38;;;15.26;93.33
81125;BME280;72192;52.114;5.424;2023-08-24T05:02:54;101772.59;;;15.29;93.24
81125;BME280;72192;52.114;5.424;2023-08-24T05:05:45;101782.28;;;15.32;92.87
81125;BME280;72192;52.114;5.424;2023-08-24T05:08:28;101767.50;;;15.34;93.08
81125;BME280;72192;52.114;5.424;2023-08-24T05:11:16;101774.13;;;15.40;93.34
81125;BME280;72192;52.114;5.424;2023-08-24T05:13:57;101784.16;;;15.47;93.17
81125;BME280;72192;52.114;5.424;2023-08-24T05:16:37;101778.53;;;15.57;92.52
81125;BME280;72192;52.114;5.424;2023-08-24T05:19:16;101777.53;;;15.66;92.58
81125;BME280;72192;52.114;5.424;2023-08-24T05:21:59;101761.50;;;15.71;92.44
81125;BME280;72192;52.114;5.424;2023-08-24T05:24:38;101762.00;;;15.75;92.53
81125;BME280;72192;52.114;5.424;2023-08-24T05:27:18;101759.94;;;15.77;91.82
81125;BME280;72192;52.114;5.424;2023-08-24T05:29:57;101759.41;;;15.82;91.83
81125;BME280;72192;52.114;5.424;2023-08-24T05:32:37;101746.13;;;15.87;91.73
81125;BME280;72192;52.114;5.424;2023-08-24T05:35:17;101739.28;;;15.91;91.94
81125;BME280;72192;52.114;5.424;2023-08-24T05:37:56;101728.53;;;15.97;91.75
81125;BME280;72192;52.114;5.424;2023-08-24T05:40:36;101739.22;;;16.07;91.69
81125;BME280;72192;52.114;5.424;2023-08-24T05:43:21;101732.53;;;16.18;91.49
81125;BME280;72192;52.114;5.424;2023-08-24T05:46:04;101736.59;;;16.22;91.65
81125;BME280;72192;52.114;5.424;2023-08-24T05:48:44;101726.50;;;16.30;91.07
81125;BME280;72192;52.114;5.424;2023-08-24T05:51:26;101730.03;;;16.39;90.78
81125;BME280;72192;52.114;5.424;2023-08-24T05:54:06;101725.06;;;16.43;90.66
81125;BME280;72192;52.114;5.424;2023-08-24T05:56:46;101717.66;;;16.51;90.94
81125;BME280;72192;52.114;5.424;2023-08-24T05:59:27;101713.31;;;16.65;90.71
81125;BME280;72192;52.114;5.424;2023-08-24T06:02:07;101716.63;;;16.83;90.46
81125;BME280;72192;52.114;5.424;2023-08-24T06:04:46;101706.03;;;17.70;88.40
81125;BME280;72192;52.114;5.424;2023-08-24T06:07:28;101696.19;;;18.63;85.51
81125;BME280;72192;52.114;5.424;2023-08-24T06:10:11;101700.16;;;19.31;82.23
81125;BME280;72192;52.114;5.424;2023-08-24T06:12:51;101699.25;;;19.87;79.06
81125;BME280;72192;52.114;5.424;2023-08-24T06:15:31;101703.44;;;20.37;77.94
81125;BME280;72192;52.114;5.424;2023-08-24T06:18:11;101693.81;;;20.81;75.06
81125;BME280;72192;52.114;5.424;2023-08-24T06:20:53;101687.91;;;20.77;74.63
81125;BME280;72192;52.114;5.424;2023-08-24T06:23:33;101687.66;;;21.38;72.40
81125;BME280;72192;52.114;5.424;2023-08-24T06:26:13;101678.56;;;22.09;69.74
81125;BME280;72192;52.114;5.424;2023-08-24T06:28:53;101673.84;;;22.54;68.33
81125;BME280;72192;52.114;5.424;2023-08-24T06:31:34;101672.03;;;22.73;67.34
81125;BME280;72192;52.114;5.424;2023-08-24T06:34:27;101652.69;;;22.55;67.08
81125;BME280;72192;52.114;5.424;2023-08-24T06:37:07;101655.84;;;22.20;68.35
81125;BME280;72192;52.114;5.424;2023-08-24T06:39:49;101670.16;;;22.36;68.93
81125;BME280;72192;52.114;5.424;2023-08-24T06:42:38;101659.94;;;22.74;67.17
81125;BME280;72192;52.114;5.424;2023-08-24T06:45:17;101655.22;;;22.81;67.86
81125;BME280;72192;52.114;5.424;2023-08-24T06:47:58;101649.31;;;22.53;67.28
81125;BME280;72192;52.114;5.424;2023-08-24T06:50:38;101646.28;;;21.85;70.18
81125;BME280;72192;52.114;5.424;2023-08-24T06:53:18;101637.06;;;21.59;71.44
81125;BME280;72192;52.114;5.424;2023-08-24T06:56:00;101633.53;;;21.45;72.91
81125;BME280;72192;52.114;5.424;2023-08-24T06:58:42;101627.44;;;21.37;72.79
81125;BME280;72192;52.114;5.424;2023-08-24T07:01:23;101622.59;;;21.12;73.69
81125;BME280;72192;52.114;5.424;2023-08-24T07:04:04;101638.00;;;21.13;73.41
81125;BME280;72192;52.114;5.424;2023-08-24T07:06:43;101646.28;;;20.87;74.45
81125;BME280;72192;52.114;5.424;2023-08-24T07:09:31;101652.41;;;20.76;74.74
81125;BME280;72192;52.114;5.424;2023-08-24T07:12:20;101638.91;;;20.68;76.07
81125;BME280;72192;52.114;5.424;2023-08-24T07:15:09;101637.41;;;20.98;75.10
81125;BME280;72192;52.114;5.424;2023-08-24T07:17:51;101631.47;;;21.14;74.48
81125;BME280;72192;52.114;5.424;2023-08-24T07:20:41;101627.88;;;21.14;74.80
81125;BME280;72192;52.114;5.424;2023-08-24T07:23:29;101617.75;;;21.01;74.36
81125;BME280;72192;52.114;5.424;2023-08-24T07:26:12;101627.44;;;21.10;74.44
81125;BME280;72192;52.114;5.424;2023-08-24T07:29:00;101628.72;;;21.01;73.75
81125;BME280;72192;52.114;5.424;2023-08-24T07:31:48;101628.72;;;21.01;73.78
81125;BME280;72192;52.114;5.424;2023-08-24T07:34:38;101634.00;;;21.29;72.72
81125;BME280;72192;52.114;5.424;2023-08-24T07:37:20;101638.13;;;21.65;72.30
81125;BME280;72192;52.114;5.424;2023-08-24T07:40:05;101627.81;;;21.98;71.72
81125;BME280;72192;52.114;5.424;2023-08-24T07:42:50;101628.56;;;22.19;70.39
81125;BME280;72192;52.114;5.424;2023-08-24T07:45:43;101619.84;;;22.22;70.04
81125;BME280;72192;52.114;5.424;2023-08-24T07:48:31;101630.34;;;22.38;70.01
81125;BME280;72192;52.114;5.424;2023-08-24T07:51:21;101627.66;;;22.56;69.49
81125;BME280;72192;52.114;5.424;2023-08-24T07:54:01;101630.63;;;22.80;67.59
81125;BME280;72192;52.114;5.424;2023-08-24T07:56:51;101623.28;;;22.49;68.58
81125;BME280;72192;52.114;5.424;2023-08-24T07:59:39;101625.97;;;22.55;67.98
81125;BME280;72192;52.114;5.424;2023-08-24T08:02:23;101635.72;;;22.83;67.58
81125;BME280;72192;52.114;5.424;2023-08-24T08:05:11;101633.78;;;23.08;67.45
81125;BME280;72192;52.114;5.424;2023-08-24T08:07:59;101631.59;;;23.35;66.71
81125;BME280;72192;52.114;5.424;2023-08-24T08:10:59;101626.38;;;23.70;67.17
81125;BME280;72192;52.114;5.424;2023-08-24T08:13:49;101630.63;;;23.85;65.46
81125;BME280;72192;52.114;5.424;2023-08-24T08:16:38;101620.09;;;23.93;64.45
81125;BME280;72192;52.114;5.424;2023-08-24T08:19:27;101612.09;;;24.03;64.02
81125;BME280;72192;52.114;5.424;2023-08-24T08:22:07;101609.38;;;24.15;64.12
81125;BME280;72192;52.114;5.424;2023-08-24T08:24:56;101604.59;;;24.11;62.98
81125;BME280;72192;52.114;5.424;2023-08-24T08:27:45;101604.91;;;24.33;62.64
81125;BME280;72192;52.114;5.424;2023-08-24T08:30:34;101605.38;;;24.29;61.33
81125;BME280;72192;52.114;5.424;2023-08-24T08:33:04;101602.25;;;24.38;61.36
81125;BME280;72192;52.114;5.424;2023-08-24T08:35:53;101595.38;;;24.58;61.20
81125;BME280;72192;52.114;5.424;2023-08-24T08:38:42;101591.72;;;24.46;61.12
81125;BME280;72192;52.114;5.424;2023-08-24T08:41:33;101587.53;;;24.44;61.29
81125;BME280;72192;52.114;5.424;2023-08-24T08:44:32;101589.09;;;24.51;59.94
81125;BME280;72192;52.114;5.424;2023-08-24T08:47:21;101571.44;;;24.52;59.74
81125;BME280;72192;52.114;5.424;2023-08-24T08:50:11;101565.81;;;24.71;59.69
81125;BME280;72192;52.114;5.424;2023-08-24T08:52:55;101566.03;;;24.93;59.07
81125;BME280;72192;52.114;5.424;2023-08-24T08:55:37;101555.84;;;24.93;58.73
81125;BME280;72192;52.114;5.424;2023-08-24T08:58:21;101544.53;;;25.06;57.50
81125;BME280;72192;52.114;5.424;2023-08-24T09:01:02;101547.09;;;25.08;58.45
81125;BME280;72192;52.114;5.424;2023-08-24T09:03:54;101530.81;;;25.23;57.94
81125;BME280;72192;52.114;5.424;2023-08-24T09:06:42;101522.63;;;25.28;57.42
81125;BME280;72192;52.114;5.424;2023-08-24T09:09:32;101520.09;;;25.27;57.39
81125;BME280;72192;52.114;5.424;2023-08-24T09:12:15;101518.19;;;25.27;57.72
81125;BME280;72192;52.114;5.424;2023-08-24T09:15:05;101527.69;;;25.60;56.77
81125;BME280;72192;52.114;5.424;2023-08-24T09:17:54;101526.47;;;25.67;57.75
81125;BME280;72192;52.114;5.424;2023-08-24T09:20:43;101523.09;;;25.77;56.43
81125;BME280;72192;52.114;5.424;2023-08-24T09:23:31;101514.97;;;26.04;55.08
81125;BME280;72192;52.114;5.424;2023-08-24T09:26:36;101504.53;;;26.40;55.21
81125;BME280;72192;52.114;5.424;2023-08-24T09:29:36;101496.41;;;26.72;55.80
81125;BME280;72192;52.114;5.424;2023-08-24T09:32:30;101500.91;;;26.56;54.37
81125;BME280;72192;52.114;5.424;2023-08-24T09:35:20;101496.84;;;26.64;53.51
81125;BME280;72192;52.114;5.424;2023-08-24T09:38:19;101492.59;;;26.95;53.33
81125;BME280;72192;52.114;5.424;2023-08-24T09:41:08;101485.59;;;26.92;52.75
81125;BME280;72192;52.114;5.424;2023-08-24T09:44:03;101478.66;;;26.90;52.55
81125;BME280;72192;52.114;5.424;2023-08-24T09:46:52;101475.47;;;26.81;52.58
81125;BME280;72192;52.114;5.424;2023-08-24T09:49:22;101480.69;;;26.55;52.58
81125;BME280;72192;52.114;5.424;2023-08-24T09:52:10;101488.03;;;26.67;53.40
81125;BME280;72192;52.114;5.424;2023-08-24T09:55:05;101483.06;;;26.69;52.74
81125;BME280;72192;52.114;5.424;2023-08-24T09:57:56;101486.13;;;26.89;52.78
81125;BME280;72192;52.114;5.424;2023-08-24T10:00:49;101479.88;;;26.99;52.74
81125;BME280;72192;52.114;5.424;2023-08-24T10:03:39;101486.69;;;26.91;52.95
81125;BME280;72192;52.114;5.424;2023-08-24T10:06:29;101485.69;;;26.58;53.38
81125;BME280;72192;52.114;5.424;2023-08-24T10:09:31;101493.50;;;26.45;54.25
81125;BME280;72192;52.114;5.424;2023-08-24T10:12:35;101498.88;;;26.18;54.48
81125;BME280;72192;52.114;5.424;2023-08-24T10:15:29;101506.88;;;25.86;56.63
81125;BME280;72192;52.114;5.424;2023-08-24T10:18:22;101497.56;;;25.75;56.52
81125;BME280;72192;52.114;5.424;2023-08-24T10:21:13;101484.84;;;25.62;57.95
81125;BME280;72192;52.114;5.424;2023-08-24T10:24:02;101481.81;;;25.47;58.38
81125;BME280;72192;52.114;5.424;2023-08-24T10:26:51;101476.94;;;25.26;58.48
81125;BME280;72192;52.114;5.424;2023-08-24T10:29:41;101476.72;;;25.15;59.22
81125;BME280;72192;52.114;5.424;2023-08-24T10:32:30;101471.69;;;25.01;60.55
81125;BME280;72192;52.114;5.424;2023-08-24T10:35:21;101476.78;;;24.80;61.52
81125;BME280;72192;52.114;5.424;2023-08-24T10:38:23;101475.72;;;24.58;62.27
81125;BME280;72192;52.114;5.424;2023-08-24T10:41:15;101467.34;;;24.41;64.06
81125;BME280;72192;52.114;5.424;2023-08-24T10:44:06;101457.00;;;24.37;64.33
81125;BME280;72192;52.114;5.424;2023-08-24T10:47:12;101463.84;;;24.34;66.75
81125;BME280;72192;52.114;5.424;2023-08-24T10:50:13;101480.53;;;24.39;66.24
81125;BME280;72192;52.114;5.424;2023-08-24T10:53:02;101500.94;;;24.38;66.25
81125;BME280;72192;52.114;5.424;2023-08-24T10:56:13;101480.16;;;24.47;65.95
81125;BME280;72192;52.114;5.424;2023-08-24T10:59:15;101478.00;;;24.61;66.29
81125;BME280;72192;52.114;5.424;2023-08-24T11:02:05;101469.72;;;24.61;67.12
81125;BME280;72192;52.114;5.424;2023-08-24T11:05:06;101473.66;;;24.65;66.99
81125;BME280;72192;52.114;5.424;2023-08-24T11:07:57;101467.06;;;24.66;67.03
81125;BME280;72192;52.114;5.424;2023-08-24T11:10:49;101458.78;;;24.78;67.39
81125;BME280;72192;52.114;5.424;2023-08-24T11:14:13;101457.53;;;24.85;66.87
81125;BME280;72192;52.114;5.424;2023-08-24T11:17:19;101470.53;;;24.85;66.29
81125;BME280;72192;52.114;5.424;2023-08-24T11:20:01;101458.13;;;24.87;66.45
81125;BME280;72192;52.114;5.424;2023-08-24T11:22:55;101456.38;;;24.81;67.55
81125;BME280;72192;52.114;5.424;2023-08-24T11:25:44;101447.22;;;24.81;68.15
81125;BME280;72192;52.114;5.424;2023-08-24T11:28:34;101428.34;;;24.89;66.88
81125;BME280;72192;52.114;5.424;2023-08-24T11:31:25;101430.41;;;24.82;67.16
81125;BME280;72192;52.114;5.424;2023-08-24T11:34:17;101421.41;;;24.75;68.57
81125;BME280;72192;52.114;5.424;2023-08-24T11:37:06;101420.44;;;24.81;68.42
81125;BME280;72192;52.114;5.424;2023-08-24T11:40:05;101403.81;;;24.93;67.20
81125;BME280;72192;52.114;5.424;2023-08-24T11:42:57;101405.16;;;24.91;68.43
81125;BME280;72192;52.114;5.424;2023-08-24T11:45:46;101397.84;;;24.84;68.68
81125;BME280;72192;52.114;5.424;2023-08-24T11:48:34;101395.78;;;24.92;68.85
81125;BME280;72192;52.114;5.424;2023-08-24T11:51:24;101393.50;;;24.88;67.95
81125;BME280;72192;52.114;5.424;2023-08-24T11:54:12;101389.97;;;25.05;67.67
81125;BME280;72192;52.114;5.424;2023-08-24T11:57:01;101385.09;;;25.24;65.56
81125;BME280;72192;52.114;5.424;2023-08-24T11:59:49;101388.75;;;25.41;65.46
81125;BME280;72192;52.114;5.424;2023-08-24T12:02:37;101384.72;;;25.65;65.11
81125;BME280;72192;52.114;5.424;2023-08-24T12:05:26;101386.84;;;25.75;63.75
81125;BME280;72192;52.114;5.424;2023-08-24T12:08:15;101383.16;;;26.03;63.78
81125;BME280;72192;52.114;5.424;2023-08-24T12:11:03;101384.38;;;26.29;61.46
81125;BME280;72192;52.114;5.424;2023-08-24T12:13:57;101386.84;;;26.86;60.01
81125;BME280;72192;52.114;5.424;2023-08-24T12:16:45;101381.81;;;27.05;59.24
81125;BME280;72192;52.114;5.424;2023-08-24T12:19:36;101380.66;;;27.28;57.34
81125;BME280;72192;52.114;5.424;2023-08-24T12:22:26;101374.56;;;27.26;58.37
81125;BME280;72192;52.114;5.424;2023-08-24T12:25:14;101368.53;;;27.34;59.70
81125;BME280;72192;52.114;5.424;2023-08-24T12:28:13;101354.06;;;27.32;57.95
81125;BME280;72192;52.114;5.424;2023-08-24T12:31:02;101350.25;;;27.11;57.89
81125;BME280;72192;52.114;5.424;2023-08-24T12:34:07;101343.84;;;26.40;59.87
81125;BME280;72192;52.114;5.424;2023-08-24T12:36:55;101340.81;;;26.24;60.36
81125;BME280;72192;52.114;5.424;2023-08-24T12:39:44;101328.97;;;26.46;60.41
81125;BME280;72192;52.114;5.424;2023-08-24T12:42:32;101320.56;;;26.63;60.00
81125;BME280;72192;52.114;5.424;2023-08-24T12:45:20;101307.94;;;26.50;59.83
81125;BME280;72192;52.114;5.424;2023-08-24T12:48:10;101289.91;;;26.47;61.43
81125;BME280;72192;52.114;5.424;2023-08-24T12:50:58;101283.28;;;25.88;61.63
81125;BME280;72192;52.114;5.424;2023-08-24T12:53:46;101290.22;;;25.90;62.16
81125;BME280;72192;52.114;5.424;2023-08-24T12:56:35;101278.44;;;26.17;62.66
81125;BME280;72192;52.114;5.424;2023-08-24T12:59:23;101268.22;;;26.22;61.78
81125;BME280;72192;52.114;5.424;2023-08-24T13:02:11;101260.06;;;26.33;62.83
81125;BME280;72192;52.114;5.424;2023-08-24T13:04:59;101263.28;;;26.95;59.16
81125;BME280;72192;52.114;5.424;2023-08-24T13:07:50;101250.72;;;27.14;59.18
81125;BME280;72192;52.114;5.424;2023-08-24T13:10:39;101241.81;;;27.12;58.57
81125;BME280;72192;52.114;5.424;2023-08-24T13:13:27;101246.25;;;27.13;57.52
81125;BME280;72192;52.114;5.424;2023-08-24T13:16:16;101256.44;;;27.03;58.20
81125;BME280;72192;52.114;5.424;2023-08-24T13:19:04;101262.06;;;27.45;56.90
81125;BME280;72192;52.114;5.424;2023-08-24T13:21:54;101267.75;;;28.08;55.53
81125;BME280;72192;52.114;5.424;2023-08-24T13:24:42;101283.69;;;28.22;53.32
81125;BME280;72192;52.114;5.424;2023-08-24T13:27:31;101291.59;;;28.46;53.44
81125;BME280;72192;52.114;5.424;2023-08-24T13:30:20;101283.69;;;28.22;54.57
81125;BME280;72192;52.114;5.424;2023-08-24T13:33:08;101293.53;;;27.98;54.75
81125;BME280;72192;52.114;5.424;2023-08-24T13:35:56;101290.59;;;28.15;55.35
81125;BME280;72192;52.114;5.424;2023-08-24T13:38:46;101286.59;;;28.43;54.86
81125;BME280;72192;52.114;5.424;2023-08-24T13:41:37;101269.38;;;28.56;54.51
81125;BME280;72192;52.114;5.424;2023-08-24T13:44:27;101259.50;;;29.01;53.66
81125;BME280;72192;52.114;5.424;2023-08-24T13:47:15;101251.66;;;28.88;52.16
81125;BME280;72192;52.114;5.424;2023-08-24T13:50:05;101262.47;;;28.69;53.32
81125;BME280;72192;52.114;5.424;2023-08-24T13:52:53;101268.00;;;28.58;53.70
81125;BME280;72192;52.114;5.424;2023-08-24T13:55:43;101248.84;;;28.67;53.72
81125;BME280;72192;52.114;5.424;2023-08-24T13:58:32;101248.81;;;28.52;54.24
81125;BME280;72192;52.114;5.424;2023-08-24T14:01:20;101253.78;;;28.45;54.42
81125;BME280;72192;52.114;5.424;2023-08-24T14:04:09;101260.69;;;28.32;55.46
81125;BME280;72192;52.114;5.424;2023-08-24T14:06:57;101262.81;;;28.20;55.81
81125;BME280;72192;52.114;5.424;2023-08-24T14:09:45;101252.88;;;27.82;56.66
81125;BME280;72192;52.114;5.424;2023-08-24T14:12:35;101246.47;;;27.34;57.90
81125;BME280;72192;52.114;5.424;2023-08-24T14:15:04;101259.56;;;27.11;59.30
81125;BME280;72192;52.114;5.424;2023-08-24T14:17:47;101254.91;;;26.90;60.34
81125;BME280;72192;52.114;5.424;2023-08-24T14:20:35;101258.47;;;26.58;60.47
81125;BME280;72192;52.114;5.424;2023-08-24T14:23:23;101263.31;;;26.46;61.69
81125;BME280;72192;52.114;5.424;2023-08-24T14:26:03;101252.84;;;26.31;61.33
81125;BME280;72192;52.114;5.424;2023-08-24T14:31:38;101243.97;;;26.08;61.88
81125;BME280;72192;52.114;5.424;2023-08-24T14:34:19;101236.06;;;26.16;62.33
81125;BME280;72192;52.114;5.424;2023-08-24T14:36:59;101233.50;;;26.15;62.58
81125;BME280;72192;52.114;5.424;2023-08-24T14:39:47;101242.47;;;26.00;62.05